createdAt,value
2023-04-28T00:01:21.723Z,10.60
2023-04-28T00:03:51.694Z,10.56
2023-04-28T00:06:20.476Z,10.52
2023-04-28T00:08:53.336Z,10.49
2023-04-28T00:11:22.776Z,10.52
2023-04-28T00:13:53.634Z,10.48
2023-04-28T00:16:22.036Z,10.48
2023-04-28T00:18:51.187Z,10.46
2023-04-28T00:21:20.871Z,10.45
2023-04-28T00:23:49.416Z,10.44
2023-04-28T00:26:20.145Z,10.48
2023-04-28T00:28:48.789Z,10.41
2023-04-28T00:31:17.420Z,10.37
2023-04-28T00:33:47.354Z,10.39
2023-04-28T00:36:16.015Z,10.38
2023-04-28T00:38:45.682Z,10.42
2023-04-28T00:41:15.914Z,10.42
2023-04-28T00:43:49.892Z,10.40
2023-04-28T00:46:24.354Z,10.38
2023-04-28T00:49:00.173Z,10.39
2023-04-28T00:51:29.377Z,10.38
2023-04-28T00:54:02.330Z,10.38
2023-04-28T00:56:32.308Z,10.39
2023-04-28T00:59:02.453Z,10.44
2023-04-28T01:01:32.799Z,10.47
2023-04-28T01:04:02.328Z,10.51
2023-04-28T01:06:31.203Z,10.59
2023-04-28T01:09:01.547Z,10.58
2023-04-28T01:11:30.180Z,10.58
2023-04-28T01:14:04.782Z,10.60
2023-04-28T01:16:33.884Z,10.55
2023-04-28T01:19:03.627Z,10.53
2023-04-28T01:21:33.967Z,10.54
2023-04-28T01:24:03.843Z,10.56
2023-04-28T01:26:32.206Z,10.62
2023-04-28T01:29:00.719Z,10.52
2023-04-28T01:31:31.288Z,10.46
2023-04-28T01:34:00.302Z,10.45
2023-04-28T01:36:28.847Z,10.47
2023-04-28T01:38:57.525Z,10.45
2023-04-28T01:41:29.090Z,10.39
2023-04-28T01:43:59.839Z,10.38
2023-04-28T01:46:28.717Z,10.37
2023-04-28T01:48:57.148Z,10.42
2023-04-28T01:51:28.563Z,10.46
2023-04-28T01:53:58.164Z,10.51
2023-04-28T01:56:28.236Z,10.58
2023-04-28T01:58:58.701Z,10.61
2023-04-28T02:01:28.264Z,10.61
2023-04-28T02:03:57.145Z,10.64
2023-04-28T02:06:27.866Z,10.67
2023-04-28T02:08:58.843Z,10.68
2023-04-28T02:11:28.717Z,10.69
2023-04-28T02:13:57.114Z,10.74
2023-04-28T02:16:25.611Z,10.71
2023-04-28T02:19:01.248Z,10.70
2023-04-28T02:21:29.951Z,10.71
2023-04-28T02:23:58.750Z,10.75
2023-04-28T02:26:28.719Z,10.79
2023-04-28T02:28:57.125Z,10.79
2023-04-28T02:31:27.222Z,10.77
2023-04-28T02:33:56.947Z,10.81
2023-04-28T02:36:27.942Z,10.76
2023-04-28T02:38:56.351Z,10.76
2023-04-28T02:41:25.273Z,10.75
2023-04-28T02:43:57.017Z,10.78
2023-04-28T02:46:29.515Z,10.80
2023-04-28T02:48:58.471Z,10.78
2023-04-28T02:51:27.020Z,10.78
2023-04-28T02:53:56.507Z,10.73
2023-04-28T02:56:25.279Z,10.71
2023-04-28T02:59:00.815Z,10.67
2023-04-28T03:01:29.282Z,10.68
2023-04-28T03:03:58.257Z,10.67
2023-04-28T03:06:27.178Z,10.68
2023-04-28T03:08:55.649Z,10.69
2023-04-28T03:11:24.430Z,10.72
2023-04-28T03:13:54.471Z,10.71
2023-04-28T03:16:26.853Z,10.69
2023-04-28T03:18:55.355Z,10.69
2023-04-28T03:21:23.837Z,10.70
2023-04-28T03:23:53.439Z,10.71
2023-04-28T03:26:23.066Z,10.72
2023-04-28T03:28:51.249Z,10.72
2023-04-28T03:31:20.664Z,10.70
2023-04-28T03:33:50.686Z,10.68
2023-04-28T03:36:19.569Z,10.69
2023-04-28T03:38:47.920Z,10.70
2023-04-28T03:41:17.625Z,10.70
2023-04-28T03:43:47.358Z,10.71
2023-04-28T03:46:15.913Z,10.71
2023-04-28T03:48:46.453Z,10.71
2023-04-28T03:51:16.540Z,10.70
2023-04-28T03:53:45.616Z,10.60
2023-04-28T03:56:14.279Z,10.59
2023-04-28T03:58:43.580Z,10.57
2023-04-28T04:01:12.073Z,10.50
2023-04-28T04:03:41.816Z,10.49
2023-04-28T04:06:11.786Z,10.48
2023-04-28T04:08:42.839Z,10.42
2023-04-28T04:11:13.883Z,10.41
2023-04-28T04:13:42.680Z,10.40
2023-04-28T04:16:12.228Z,10.39
2023-04-28T04:18:40.818Z,10.39
2023-04-28T04:21:09.258Z,10.34
2023-04-28T04:23:38.547Z,10.31
2023-04-28T04:26:10.770Z,10.32
2023-04-28T04:28:42.522Z,10.27
2023-04-28T04:31:10.945Z,10.24
2023-04-28T04:33:39.553Z,10.18
2023-04-28T04:36:08.993Z,10.16
2023-04-28T04:38:38.335Z,10.21
2023-04-28T04:41:08.294Z,10.17
2023-04-28T04:43:38.956Z,10.17
2023-04-28T04:46:07.598Z,10.21
2023-04-28T04:48:36.030Z,10.21
2023-04-28T04:51:04.353Z,10.18
2023-04-28T04:53:35.606Z,10.18
2023-04-28T04:56:04.285Z,10.15
2023-04-28T04:58:33.063Z,10.16
2023-04-28T05:01:04.916Z,10.14
2023-04-28T05:03:33.563Z,10.10
2023-04-28T05:06:03.158Z,10.13
2023-04-28T05:08:31.651Z,10.10
2023-04-28T05:11:00.333Z,10.10
2023-04-28T05:13:28.909Z,10.10
2023-04-28T05:15:57.360Z,10.10
2023-04-28T05:18:29.363Z,10.11
2023-04-28T05:20:57.743Z,10.13
2023-04-28T05:23:26.231Z,10.14
2023-04-28T05:25:54.819Z,10.12
2023-04-28T05:28:24.414Z,10.16
2023-04-28T05:30:52.924Z,10.19
2023-04-28T05:33:21.459Z,10.22
2023-04-28T05:35:52.503Z,10.22
2023-04-28T05:38:23.318Z,10.22
2023-04-28T05:40:59.116Z,10.22
2023-04-28T05:43:27.407Z,10.28
2023-04-28T05:45:59.158Z,10.28
2023-04-28T05:48:27.632Z,10.33
2023-04-28T05:50:58.465Z,10.36
2023-04-28T05:53:33.165Z,10.42
2023-04-28T05:56:02.246Z,10.38
2023-04-28T05:58:32.133Z,10.39
2023-04-28T06:01:01.283Z,10.36
2023-04-28T06:03:29.969Z,10.41
2023-04-28T06:06:00.418Z,10.43
2023-04-28T06:08:28.772Z,10.47
2023-04-28T06:10:57.566Z,10.46
2023-04-28T06:13:26.228Z,10.41
2023-04-28T06:15:55.213Z,10.39
2023-04-28T06:18:24.437Z,10.40
2023-04-28T06:20:53.681Z,10.36
2023-04-28T06:23:23.521Z,10.39
2023-04-28T06:25:52.065Z,10.42
2023-04-28T06:28:20.494Z,10.41
2023-04-28T06:30:48.922Z,10.46
2023-04-28T06:33:17.784Z,10.48
2023-04-28T06:35:46.706Z,10.56
2023-04-28T06:38:15.270Z,10.61
2023-04-28T06:40:46.114Z,10.65
2023-04-28T06:43:14.509Z,10.68
2023-04-28T06:45:43.233Z,10.68
2023-04-28T06:48:11.641Z,10.75
2023-04-28T06:50:41.662Z,10.79
2023-04-28T06:53:11.535Z,10.86
2023-04-28T06:55:40.340Z,11.02
2023-04-28T06:58:10.341Z,11.10
2023-04-28T07:00:38.809Z,11.05
2023-04-28T07:03:07.843Z,11.03
2023-04-28T07:05:38.955Z,11.03
2023-04-28T07:08:07.912Z,11.09
2023-04-28T07:10:36.491Z,11.07
2023-04-28T07:13:05.192Z,11.10
2023-04-28T07:15:35.378Z,11.15
2023-04-28T07:18:03.941Z,11.22
2023-04-28T07:20:32.790Z,11.27
2023-04-28T07:23:01.594Z,11.30
2023-04-28T07:25:32.196Z,11.29
2023-04-28T07:28:00.841Z,11.35
2023-04-28T07:30:29.312Z,11.43
2023-04-28T07:32:59.914Z,11.38
2023-04-28T07:35:28.516Z,11.39
2023-04-28T07:37:58.202Z,11.38
2023-04-28T07:40:26.995Z,11.32
2023-04-28T07:42:55.751Z,11.34
2023-04-28T07:45:24.217Z,11.34
2023-04-28T07:47:52.878Z,11.37
2023-04-28T07:50:23.615Z,11.39
2023-04-28T07:52:52.163Z,11.40
2023-04-28T07:55:20.428Z,11.43
2023-04-28T07:57:49.782Z,11.46
2023-04-28T08:00:19.546Z,11.53
2023-04-28T08:02:47.988Z,11.56
2023-04-28T08:05:18.074Z,11.63
2023-04-28T08:07:48.475Z,11.62
2023-04-28T08:10:18.152Z,11.58
2023-04-28T08:12:46.651Z,11.55
2023-04-28T08:15:16.710Z,11.62
2023-04-28T08:17:47.230Z,11.74
2023-04-28T08:20:21.666Z,11.78
2023-04-28T08:22:53.828Z,11.73
2023-04-28T08:25:22.742Z,11.69
2023-04-28T08:27:51.672Z,11.69
2023-04-28T08:30:20.119Z,11.71
2023-04-28T08:32:48.921Z,11.75
2023-04-28T08:35:17.547Z,11.87
2023-04-28T08:37:46.734Z,11.93
2023-04-28T08:40:16.766Z,12.00
2023-04-28T08:42:47.544Z,12.10
2023-04-28T08:45:16.975Z,12.13
2023-04-28T08:47:48.056Z,12.20
2023-04-28T08:50:17.577Z,12.27
2023-04-28T08:52:46.428Z,12.37
2023-04-28T08:55:17.725Z,12.49
2023-04-28T08:57:51.800Z,12.49
2023-04-28T09:00:20.357Z,12.45
2023-04-28T09:02:49.235Z,12.55
2023-04-28T09:05:18.190Z,12.62
2023-04-28T09:07:49.043Z,12.53
2023-04-28T09:10:24.145Z,12.60
2023-04-28T09:12:54.724Z,12.68
2023-04-28T09:15:33.884Z,12.67
2023-04-28T09:18:03.204Z,12.62
2023-04-28T09:20:33.984Z,12.70
2023-04-28T09:23:17.924Z,12.74
2023-04-28T09:26:01.942Z,12.78
2023-04-28T09:28:30.464Z,12.86
2023-04-28T09:30:59.718Z,12.83
2023-04-28T09:33:28.710Z,12.82
2023-04-28T09:35:58.354Z,12.69
2023-04-28T09:38:27.520Z,12.82
2023-04-28T09:40:58.909Z,12.93
2023-04-28T09:43:34.838Z,12.93
2023-04-28T09:46:05.706Z,12.88
2023-04-28T09:48:38.277Z,12.81
2023-04-28T09:51:09.466Z,13.08
2023-04-28T09:53:39.008Z,13.19
2023-04-28T09:56:08.743Z,13.13
2023-04-28T09:58:42.635Z,13.04
2023-04-28T10:01:13.205Z,13.13
2023-04-28T10:03:42.419Z,13.07
2023-04-28T10:06:11.283Z,13.17
2023-04-28T10:08:40.810Z,13.36
2023-04-28T10:11:10.450Z,13.72
2023-04-28T10:13:40.884Z,14.07
2023-04-28T10:16:10.348Z,13.99
2023-04-28T10:18:39.500Z,13.94
2023-04-28T10:21:09.602Z,13.95
2023-04-28T10:24:07.349Z,13.61
2023-04-28T10:27:07.176Z,13.43
2023-04-28T10:29:37.988Z,13.40
2023-04-28T10:32:26.250Z,13.28
2023-04-28T10:34:55.156Z,13.25
2023-04-28T10:37:58.595Z,13.11
2023-04-28T10:40:34.088Z,12.97
2023-04-28T10:43:03.954Z,12.88
2023-04-28T10:46:02.213Z,12.90
2023-04-28T10:49:07.330Z,12.94
2023-04-28T10:51:38.242Z,13.18
2023-04-28T10:54:18.049Z,13.30
2023-04-28T10:57:29.177Z,13.32
2023-04-28T11:00:30.970Z,13.64
2023-04-28T11:03:02.696Z,13.77
2023-04-28T11:05:33.712Z,14.21
2023-04-28T11:08:33.527Z,14.56
2023-04-28T11:11:22.094Z,14.71
2023-04-28T11:13:51.809Z,14.83
2023-04-28T11:16:23.010Z,14.79
2023-04-28T11:18:59.668Z,14.71
2023-04-28T11:21:29.696Z,14.64
2023-04-28T11:24:00.021Z,14.60
2023-04-28T11:26:31.522Z,14.55
2023-04-28T11:29:00.042Z,14.54
2023-04-28T11:31:29.165Z,14.47
2023-04-28T11:34:12.091Z,14.38
2023-04-28T11:36:41.445Z,14.23
2023-04-28T11:39:12.923Z,14.13
2023-04-28T11:41:42.727Z,14.14
2023-04-28T11:44:15.521Z,14.17
2023-04-28T11:46:51.189Z,14.32
2023-04-28T11:49:21.423Z,14.39
2023-04-28T11:51:50.571Z,14.49
2023-04-28T11:54:23.564Z,14.72
2023-04-28T11:56:52.921Z,14.83
2023-04-28T11:59:26.493Z,14.89
2023-04-28T12:01:57.656Z,14.90
2023-04-28T12:04:35.924Z,14.97
2023-04-28T12:07:08.101Z,15.13
2023-04-28T12:09:37.112Z,15.21
2023-04-28T12:12:08.308Z,15.55
2023-04-28T12:14:56.081Z,15.77
2023-04-28T12:17:28.610Z,15.93
2023-04-28T12:20:04.043Z,16.03
2023-04-28T12:22:33.146Z,15.92
2023-04-28T12:25:07.348Z,15.85
2023-04-28T12:27:38.622Z,15.60
2023-04-28T12:30:28.461Z,15.56
2023-04-28T12:32:58.090Z,15.37
2023-04-28T12:35:30.892Z,15.18
2023-04-28T12:37:59.870Z,15.15
2023-04-28T12:40:28.401Z,15.26
2023-04-28T12:42:57.289Z,15.30
2023-04-28T12:45:26.327Z,15.31
2023-04-28T12:47:57.273Z,15.34
2023-04-28T12:50:26.199Z,15.51
2023-04-28T12:52:56.824Z,15.85
2023-04-28T12:55:25.537Z,15.89
2023-04-28T12:57:54.072Z,15.92
2023-04-28T13:00:23.701Z,15.92
2023-04-28T13:02:53.356Z,15.75
2023-04-28T13:05:22.180Z,15.55
2023-04-28T13:07:52.719Z,15.31
2023-04-28T13:10:23.971Z,15.14
2023-04-28T13:12:52.511Z,15.38
2023-04-28T13:15:22.572Z,15.50
2023-04-28T13:17:51.219Z,15.62
2023-04-28T13:20:20.763Z,15.61
2023-04-28T13:22:50.527Z,15.68
2023-04-28T13:25:21.958Z,15.72
2023-04-28T13:27:50.649Z,15.97
2023-04-28T13:30:19.069Z,16.24
2023-04-28T13:32:47.592Z,16.25
2023-04-28T13:35:16.415Z,16.32
2023-04-28T13:37:46.352Z,16.14
2023-04-28T13:40:14.925Z,16.21
2023-04-28T13:42:44.808Z,16.28
2023-04-28T13:45:14.908Z,16.29
2023-04-28T13:47:45.931Z,16.39
2023-04-28T13:50:14.259Z,16.23
2023-04-28T13:52:42.764Z,16.26
2023-04-28T13:55:11.583Z,16.57
2023-04-28T13:57:41.548Z,16.94
2023-04-28T14:00:13.734Z,16.99
2023-04-28T14:02:43.738Z,16.70
2023-04-28T14:05:12.950Z,16.74
2023-04-28T14:07:41.903Z,16.74
2023-04-28T14:10:12.383Z,16.98
2023-04-28T14:12:41.072Z,17.10
2023-04-28T14:15:12.230Z,17.38
2023-04-28T14:17:41.020Z,17.75
2023-04-28T14:20:12.299Z,17.92
2023-04-28T14:22:42.474Z,17.90
2023-04-28T14:25:12.037Z,17.59
2023-04-28T14:27:40.516Z,17.21
2023-04-28T14:30:10.502Z,17.11
2023-04-28T14:32:40.668Z,17.26
2023-04-28T14:35:10.554Z,17.42
2023-04-28T14:37:39.260Z,17.52
2023-04-28T14:40:09.561Z,17.44
2023-04-28T14:42:38.922Z,17.27
2023-04-28T14:45:09.347Z,17.34
2023-04-28T14:47:40.457Z,17.52
2023-04-28T14:50:13.203Z,17.34
2023-04-28T14:52:42.981Z,17.21
2023-04-28T14:55:11.846Z,17.04
2023-04-28T14:57:40.276Z,17.17
2023-04-28T15:00:10.313Z,17.16
2023-04-28T15:02:40.420Z,17.20
2023-04-28T15:05:11.702Z,17.09
2023-04-28T15:07:40.360Z,17.47
2023-04-28T15:10:09.921Z,17.62
2023-04-28T15:12:39.316Z,17.61
2023-04-28T15:15:08.690Z,17.42
2023-04-28T15:17:39.579Z,17.09
2023-04-28T15:20:14.453Z,17.25
2023-04-28T15:22:44.836Z,17.48
2023-04-28T15:25:19.019Z,17.46
2023-04-28T15:27:52.075Z,17.47
2023-04-28T15:30:23.700Z,17.53
2023-04-28T15:32:53.925Z,17.70
2023-04-28T15:35:23.403Z,18.18
2023-04-28T15:37:57.116Z,19.70
2023-04-28T15:40:25.682Z,19.57
2023-04-28T15:42:54.383Z,20.51
2023-04-28T15:45:24.344Z,20.85
2023-04-28T15:47:55.223Z,21.13
2023-04-28T15:50:24.316Z,19.62
2023-04-28T15:52:52.870Z,18.78
2023-04-28T15:55:25.240Z,18.12
2023-04-28T15:58:00.916Z,17.96
2023-04-28T16:00:30.654Z,18.07
2023-04-28T16:03:01.631Z,19.28
2023-04-28T16:05:33.757Z,20.46
2023-04-28T16:08:02.075Z,18.87
2023-04-28T16:10:30.926Z,18.19
2023-04-28T16:12:59.264Z,17.64
2023-04-28T16:15:29.814Z,17.33
2023-04-28T16:18:02.336Z,17.14
2023-04-28T16:20:31.598Z,17.23
2023-04-28T16:23:00.244Z,17.16
2023-04-28T16:25:30.873Z,17.14
2023-04-28T16:28:01.698Z,17.34
2023-04-28T16:30:30.948Z,18.20
2023-04-28T16:32:59.664Z,18.20
2023-04-28T16:35:30.497Z,17.85
2023-04-28T16:37:59.935Z,17.76
2023-04-28T16:40:28.921Z,17.64
2023-04-28T16:42:58.464Z,17.70
2023-04-28T16:45:27.134Z,17.62
2023-04-28T16:48:01.590Z,17.59
2023-04-28T16:50:34.200Z,17.67
2023-04-28T16:53:02.652Z,18.00
2023-04-28T16:55:31.173Z,18.31
2023-04-28T16:57:59.831Z,19.67
2023-04-28T17:00:29.740Z,20.36
2023-04-28T17:02:58.281Z,19.51
2023-04-28T17:05:27.240Z,18.51
2023-04-28T17:07:58.152Z,17.76
2023-04-28T17:10:27.086Z,18.97
2023-04-28T17:12:55.924Z,21.83
2023-04-28T17:15:24.721Z,20.71
2023-04-28T17:17:54.317Z,18.75
2023-04-28T17:20:23.430Z,18.12
2023-04-28T17:22:53.405Z,17.90
2023-04-28T17:25:25.148Z,17.53
2023-04-28T17:27:55.714Z,17.22
2023-04-28T17:30:26.432Z,16.96
2023-04-28T17:32:56.283Z,16.89
2023-04-28T17:35:25.068Z,16.83
2023-04-28T17:37:53.364Z,16.70
2023-04-28T17:40:24.670Z,16.65
2023-04-28T17:42:53.643Z,16.68
2023-04-28T17:45:22.096Z,16.66
2023-04-28T17:47:53.776Z,16.69
2023-04-28T17:50:22.836Z,16.55
2023-04-28T17:52:51.852Z,16.47
2023-04-28T17:55:20.520Z,16.42
2023-04-28T17:57:51.900Z,16.15
2023-04-28T18:00:20.721Z,16.00
2023-04-28T18:02:49.267Z,15.85
2023-04-28T18:05:18.235Z,15.79
2023-04-28T18:07:47.187Z,15.72
2023-04-28T18:10:17.317Z,15.63
2023-04-28T18:12:46.619Z,15.64
2023-04-28T18:15:16.777Z,15.69
2023-04-28T18:17:46.401Z,15.66
2023-04-28T18:20:15.074Z,15.65
2023-04-28T18:22:43.572Z,15.78
2023-04-28T18:25:13.421Z,16.01
2023-04-28T18:27:42.181Z,19.29
2023-04-28T18:30:11.849Z,20.78
2023-04-28T18:32:42.773Z,20.42
2023-04-28T18:35:11.583Z,18.62
2023-04-28T18:37:40.213Z,17.72
2023-04-28T18:40:10.748Z,16.81
2023-04-28T18:42:40.428Z,16.48
2023-04-28T18:47:39.170Z,16.39
2023-04-28T18:50:10.696Z,17.67
2023-04-28T18:52:39.166Z,18.23
2023-04-28T18:55:08.348Z,17.23
2023-04-28T18:57:38.897Z,16.62
2023-04-28T19:00:10.024Z,16.14
2023-04-28T19:02:38.858Z,15.93
2023-04-28T19:05:10.572Z,15.86
2023-04-28T19:07:40.242Z,16.51
2023-04-28T19:10:09.993Z,18.25
2023-04-28T19:12:38.689Z,19.62
2023-04-28T19:15:07.676Z,19.54
2023-04-28T19:17:36.680Z,18.85
2023-04-28T19:20:05.672Z,17.49
2023-04-28T19:22:37.153Z,16.65
2023-04-28T19:25:07.059Z,16.17
2023-04-28T19:27:37.509Z,15.79
2023-04-28T19:30:08.258Z,15.55
2023-04-28T19:32:39.560Z,15.33
2023-04-28T19:35:11.997Z,15.08
2023-04-28T19:37:42.573Z,14.98
2023-04-28T19:40:12.205Z,14.87
2023-04-28T19:42:42.049Z,14.72
2023-04-28T19:45:12.766Z,14.62
2023-04-28T19:47:42.726Z,14.51
2023-04-28T19:50:11.752Z,14.43
2023-04-28T19:52:42.767Z,14.33
2023-04-28T19:55:19.964Z,14.27
2023-04-28T19:57:49.083Z,14.22
2023-04-28T20:00:18.966Z,14.14
2023-04-28T20:02:47.534Z,14.11
2023-04-28T20:05:16.809Z,14.02
2023-04-28T20:07:46.612Z,14.04
2023-04-28T20:10:15.755Z,14.03
2023-04-28T20:12:44.166Z,14.02
2023-04-28T20:15:14.187Z,13.96
2023-04-28T20:17:42.817Z,13.89
2023-04-28T20:20:12.398Z,13.81
2023-04-28T20:22:42.127Z,13.73
2023-04-28T20:25:17.726Z,13.68
2023-04-28T20:27:47.415Z,13.61
2023-04-28T20:30:19.137Z,13.59
2023-04-28T20:32:48.952Z,13.59
2023-04-28T20:35:17.736Z,13.57
2023-04-28T20:37:47.527Z,13.57
2023-04-28T20:40:19.248Z,13.54
2023-04-28T20:42:47.929Z,13.44
2023-04-28T20:45:16.540Z,13.39
2023-04-28T20:47:45.396Z,13.34
2023-04-28T20:50:14.040Z,13.32
2023-04-28T20:52:43.508Z,13.32
2023-04-28T20:55:19.683Z,13.32
2023-04-28T20:57:50.056Z,13.27
2023-04-28T21:00:20.580Z,13.22
2023-04-28T21:02:50.304Z,13.14
2023-04-28T21:05:25.112Z,13.08
2023-04-28T21:07:55.847Z,13.05
2023-04-28T21:10:26.312Z,13.06
2023-04-28T21:12:56.902Z,13.11
2023-04-28T21:15:29.071Z,13.18
2023-04-28T21:17:58.890Z,13.15
2023-04-28T21:20:30.467Z,13.20
2023-04-28T21:23:03.073Z,13.15
2023-04-28T21:25:42.329Z,13.07
2023-04-28T21:28:11.515Z,13.10
2023-04-28T21:30:41.429Z,13.09
2023-04-28T21:33:09.830Z,13.04
2023-04-28T21:35:39.587Z,12.97
2023-04-28T21:38:08.046Z,12.93
2023-04-28T21:40:40.552Z,12.92
2023-04-28T21:43:10.777Z,12.93
2023-04-28T21:45:46.373Z,12.90
2023-04-28T21:48:23.982Z,12.84
2023-04-28T21:50:55.198Z,12.81
2023-04-28T21:53:23.865Z,12.76
2023-04-28T21:55:53.818Z,12.73
2023-04-28T21:58:22.128Z,12.69
2023-04-28T22:01:09.851Z,12.58
2023-04-28T22:03:41.396Z,12.54
2023-04-28T22:06:10.596Z,12.52
2023-04-28T22:08:39.228Z,12.52
2023-04-28T22:11:09.991Z,12.48
2023-04-28T22:13:39.605Z,12.43
2023-04-28T22:16:08.190Z,12.42
2023-04-28T22:18:38.177Z,12.39
2023-04-28T22:21:08.272Z,12.24
2023-04-28T22:23:38.297Z,12.11
2023-04-28T22:26:08.558Z,12.04
2023-04-28T22:28:39.251Z,12.04
2023-04-28T22:31:07.982Z,11.92
2023-04-28T22:33:43.833Z,11.93
2023-04-28T22:36:21.009Z,11.98
2023-04-28T22:38:51.605Z,11.99
2023-04-28T22:41:21.387Z,11.98
2023-04-28T22:43:51.402Z,11.87
2023-04-28T22:46:21.104Z,11.65
2023-04-28T22:48:55.842Z,11.56
2023-04-28T22:51:25.798Z,11.54
2023-04-28T22:53:55.710Z,11.51
2023-04-28T22:56:26.882Z,11.45
2023-04-28T22:58:55.767Z,11.52
2023-04-28T23:01:26.411Z,11.60
2023-04-28T23:03:56.853Z,11.58
2023-04-28T23:06:29.168Z,11.59
2023-04-28T23:08:58.067Z,11.62
2023-04-28T23:11:29.287Z,11.62
2023-04-28T23:13:59.961Z,11.64
2023-04-28T23:16:30.948Z,11.61
2023-04-28T23:19:01.035Z,11.58
2023-04-28T23:21:31.418Z,11.57
2023-04-28T23:24:06.018Z,11.56
2023-04-28T23:26:38.736Z,11.55
2023-04-28T23:29:09.294Z,11.48
2023-04-28T23:31:40.315Z,11.40
2023-04-28T23:34:09.042Z,11.38
2023-04-28T23:36:38.098Z,11.38
2023-04-28T23:39:08.671Z,11.36
2023-04-28T23:41:38.687Z,11.32
2023-04-28T23:44:08.319Z,11.30
2023-04-28T23:46:37.045Z,11.30
2023-04-28T23:49:05.391Z,11.25
2023-04-28T23:51:38.519Z,11.30
2023-04-28T23:54:06.965Z,11.32
2023-04-28T23:56:38.096Z,11.30
2023-04-28T23:59:10.503Z,11.27
